Time;durP1;ratioP1;P1;durP2;ratioP2;P2;SDS_P1;SDS_P2;PMS_P1;PMS_P2;Temp;Humidity;BMP_temperature;BMP_pressure;BME280_temperature;BME280_humidity;BME280_pressure;Samples;Min_cycle;Max_cycle;Signal;HPM_P1;HPM_P2
2021/11/29 00:00:19;;;;;;;11.52;2.40;;;;;;;4.44;81.10;97383.97;5038099;28;20430;-50
2021/11/29 00:02:48;;;;;;;6.32;2.55;;;;;;;4.53;81.42;97392.44;5020314;28;20021;-49
2021/11/29 00:05:16;;;;;;;6.78;2.25;;;;;;;4.55;80.84;97396.44;5038111;28;20026;-48
2021/11/29 00:07:42;;;;;;;6.57;2.40;;;;;;;4.57;80.60;97399.63;5020287;28;20053;-50
2021/11/29 00:10:08;;;;;;;5.57;2.00;;;;;;;4.68;80.35;97397.47;5020265;28;20061;-50
2021/11/29 00:12:35;;;;;;;10.35;2.60;;;;;;;4.74;80.50;97399.28;5038056;28;20503;-51
2021/11/29 00:15:01;;;;;;;6.20;2.10;;;;;;;4.83;80.41;97402.50;5038045;28;20021;-50
2021/11/29 00:17:27;;;;;;;17.60;9.73;;;;;;;4.73;80.02;97408.09;5037988;28;20053;-49
2021/11/29 00:19:53;;;;;;;13.65;2.63;;;;;;;4.80;80.21;97409.72;5037944;28;20507;-50
2021/11/29 00:22:19;;;;;;;25.98;8.43;;;;;;;4.89;80.51;97407.75;5037952;28;20017;-50
2021/11/29 00:24:44;;;;;;;6.93;3.70;;;;;;;5.04;80.78;97404.97;5037926;28;20029;-50
2021/11/29 00:27:10;;;;;;;17.15;7.10;;;;;;;5.14;80.57;97399.41;5037923;28;20050;-49
2021/11/29 00:29:36;;;;;;;25.02;15.32;;;;;;;5.13;80.10;97406.41;5037793;28;20469;-49
2021/11/29 00:32:02;;;;;;;39.72;31.55;;;;;;;5.25;80.80;97401.44;5038200;28;20029;-50
2021/11/29 00:34:28;;;;;;;9.07;5.57;;;;;;;5.34;80.17;97404.66;5057880;28;20021;-50
2021/11/29 00:36:54;;;;;;;10.32;6.25;;;;;;;5.39;80.27;97403.06;5057755;28;20047;-50
2021/11/29 00:39:20;;;;;;;13.63;5.38;;;;;;;5.44;79.99;97409.47;5057761;28;20028;-49
2021/11/29 00:41:45;;;;;;;11.43;2.35;;;;;;;5.43;79.67;97406.03;5057769;28;20075;-50
2021/11/29 00:44:11;;;;;;;11.55;3.72;;;;;;;5.49;80.10;97412.25;5057731;28;20071;-49
2021/11/29 00:46:37;;;;;;;14.43;2.83;;;;;;;5.55;79.61;97414.06;5057741;28;20489;-49
2021/11/29 00:49:03;;;;;;;7.65;2.90;;;;;;;5.56;79.01;97415.69;5057775;28;20067;-49
2021/11/29 00:51:30;;;;;;;7.55;2.22;;;;;;;5.45;77.47;97416.25;5039639;28;20635;-49
2021/11/29 00:53:55;;;;;;;7.32;1.85;;;;;;;5.31;78.08;97423.25;5057685;28;20052;-49
2021/11/29 00:56:21;;;;;;;11.77;4.47;;;;;;;5.28;77.81;97432.25;5055027;28;20053;-48
2021/11/29 00:58:49;;;;;;;6.63;2.00;;;;;;;5.24;77.82;97430.25;5054425;28;20067;-48
2021/11/29 01:01:16;;;;;;;6.35;1.80;;;;;;;5.23;76.80;97439.81;5036568;28;20028;-49
2021/11/29 01:03:42;;;;;;;5.95;1.95;;;;;;;5.07;76.47;97435.81;5054421;28;20398;-48
2021/11/29 01:06:08;;;;;;;1999.90;987.75;;;;;;;5.09;76.71;97436.41;5054341;28;20053;-48
2021/11/29 01:08:35;;;;;;;487.60;305.38;;;;;;;5.12;76.54;97435.22;5054285;28;20096;-48
2021/11/29 01:11:03;;;;;;;166.93;114.93;;;;;;;5.05;77.02;97447.38;5036327;28;20029;-48
2021/11/29 01:13:28;;;;;;;447.63;311.80;;;;;;;5.02;77.02;97447.78;5054154;28;20021;-48
2021/11/29 01:15:54;;;;;;;58.80;30.60;;;;;;;5.15;77.52;97451.22;5054166;28;20444;-47
2021/11/29 01:18:20;;;;;;;66.35;32.85;;;;;;;5.17;77.11;97449.25;5036067;28;20112;-46
2021/11/29 01:20:47;;;;;;;29.80;15.68;;;;;;;5.26;77.93;97452.44;5036134;28;20032;-47
2021/11/29 01:23:14;;;;;;;28.25;14.77;;;;;;;5.38;77.41;97453.47;5054084;28;20024;-48
2021/11/29 01:25:41;;;;;;;15.50;7.18;;;;;;;5.47;77.32;97458.50;5053957;28;20017;-48
2021/11/29 01:28:07;;;;;;;36.20;14.18;;;;;;;5.55;77.57;97461.72;5053967;28;20394;-47
2021/11/29 01:30:34;;;;;;;20.48;7.88;;;;;;;5.72;76.81;97456.13;5053875;28;20100;-48
2021/11/29 01:33:00;;;;;;;15.52;6.43;;;;;;;5.82;76.71;97461.75;5027110;28;20038;-48
2021/11/29 01:35:27;;;;;;;17.08;6.95;;;;;;;5.93;76.90;97463.72;5033839;28;20017;-48
2021/11/29 01:37:52;;;;;;;23.85;6.57;;;;;;;6.03;76.69;97454.75;5033853;28;20466;-48
2021/11/29 01:40:18;;;;;;;15.73;4.93;;;;;;;6.15;76.01;97458.34;5015925;28;20083;-47
2021/11/29 01:43:14;;;;;;;18.23;4.93;;;;;;;6.14;75.29;97467.97;5033664;28;20483;-47
2021/11/29 01:45:53;;;;;;;7.82;2.53;;;;;;;6.18;74.42;97470.97;5000223;28;20120;-49
2021/11/29 01:48:20;;;;;;;9.00;2.70;;;;;;;5.93;73.64;97468.13;5033703;28;20052;-48
2021/11/29 01:50:49;;;;;;;27.98;4.93;;;;;;;5.92;74.48;97476.97;5033588;28;20024;-47
2021/11/29 01:53:16;;;;;;;7.72;1.88;;;;;;;6.03;74.19;97480.78;5032253;28;20499;-48
2021/11/29 01:55:44;;;;;;;10.00;2.20;;;;;;;6.01;74.67;97473.19;5033429;28;20033;-49
2021/11/29 01:58:11;;;;;;;9.02;3.05;;;;;;;6.03;74.54;97475.59;5033497;28;20079;-47
2021/11/29 02:00:40;;;;;;;6.07;3.08;;;;;;;5.92;73.85;97484.78;5033348;28;20025;-48
2021/11/29 02:03:06;;;;;;;23.48;3.75;;;;;;;5.88;74.19;97480.97;5033413;28;20041;-47
2021/11/29 02:05:33;;;;;;;10.38;1.88;;;;;;;5.84;74.42;97483.16;5033306;28;20116;-48
2021/11/29 02:08:00;;;;;;;8.13;2.58;;;;;;;5.61;73.60;97478.31;5032910;28;20139;-48
2021/11/29 02:10:26;;;;;;;4.75;2.13;;;;;;;5.46;74.09;97490.72;5015387;28;20026;-49
2021/11/29 02:12:51;;;;;;;5.45;1.90;;;;;;;5.27;74.05;97493.09;5033188;28;20033;-47
2021/11/29 02:15:19;;;;;;;10.27;1.63;;;;;;;5.17;74.91;97484.81;5015351;28;20025;-47
2021/11/29 02:17:46;;;;;;;8.32;1.83;;;;;;;5.06;75.17;97491.41;5033119;28;20025;-48
2021/11/29 02:20:15;;;;;;;5.00;1.70;;;;;;;4.94;75.68;97495.56;5015158;28;20395;-48
2021/11/29 02:22:43;;;;;;;4.70;2.58;;;;;;;4.82;75.24;97500.50;5033001;28;20430;-48
2021/11/29 02:25:11;;;;;;;7.30;3.15;;;;;;;4.68;76.04;97499.63;5032978;28;20534;-48
2021/11/29 02:27:40;;;;;;;2.42;1.40;;;;;;;4.61;76.08;97498.78;5015145;28;20026;-49
2021/11/29 02:30:06;;;;;;;8.45;2.20;;;;;;;4.58;76.70;97504.38;5031578;28;20025;-49
2021/11/29 02:32:32;;;;;;;4.32;2.20;;;;;;;4.56;76.92;97504.53;5014811;28;20127;-49
2021/11/29 02:34:58;;;;;;;4.93;1.58;;;;;;;4.57;76.59;97497.56;5032824;28;20475;-49
2021/11/29 02:37:23;;;;;;;11.05;4.65;;;;;;;4.60;77.29;97499.78;5032702;28;20032;-49
2021/11/29 02:39:49;;;;;;;6.82;2.40;;;;;;;4.63;76.96;97495.97;5032589;28;20053;-50
2021/11/29 02:42:15;;;;;;;2.35;1.50;;;;;;;4.64;76.77;97502.81;5032546;28;20152;-49
2021/11/29 02:44:42;;;;;;;15.45;8.30;;;;;;;4.68;77.01;97504.03;5032572;28;20487;-49
2021/11/29 02:47:08;;;;;;;4.75;2.40;;;;;;;4.68;77.07;97510.00;5032480;28;20425;-49
2021/11/29 02:49:34;;;;;;;3.55;1.70;;;;;;;4.68;76.67;97506.63;5014694;28;20080;-49
2021/11/29 02:52:04;;;;;;;3.90;1.63;;;;;;;4.64;76.41;97515.78;5032453;28;20484;-49
2021/11/29 02:54:33;;;;;;;3.65;1.42;;;;;;;4.56;77.06;97504.53;5032397;28;20036;-50
2021/11/29 02:57:04;;;;;;;19.42;12.27;;;;;;;4.75;77.83;97499.69;5032375;28;20013;-48
2021/11/29 02:59:32;;;;;;;4.22;1.42;;;;;;;4.87;77.35;97513.72;5032237;28;20535;-49
2021/11/29 03:02:04;;;;;;;3.95;2.03;;;;;;;5.05;77.69;97514.97;5032302;28;20025;-49
2021/11/29 03:04:32;;;;;;;4.70;1.95;;;;;;;5.10;77.17;97504.81;5032195;28;20079;-50
2021/11/29 03:06:59;;;;;;;5.82;1.80;;;;;;;5.22;77.16;97505.06;5014383;28;20022;-50
2021/11/29 03:09:26;;;;;;;6.32;1.70;;;;;;;5.30;76.29;97508.28;5032205;28;20025;-49
2021/11/29 03:11:53;;;;;;;6.38;3.75;;;;;;;5.37;76.31;97503.91;5032095;28;20033;-50
2021/11/29 03:14:19;;;;;;;4.13;1.50;;;;;;;5.54;75.66;97498.34;5014313;28;20025;-50
2021/11/29 03:16:46;;;;;;;117.93;104.97;;;;;;;5.56;76.33;97506.75;5031992;28;20026;-49
2021/11/29 03:19:12;;;;;;;1.55;1.17;;;;;;;5.58;75.38;97508.16;5031288;28;20116;-50
2021/11/29 03:21:38;;;;;;;6.63;1.60;;;;;;;5.60;75.90;97505.38;5031952;28;20405;-50
2021/11/29 03:24:08;;;;;;;3.70;1.63;;;;;;;5.61;75.83;97504.34;5031897;28;20080;-50
2021/11/29 03:26:36;;;;;;;3.58;1.25;;;;;;;5.58;75.12;97504.75;5031921;28;20028;-50
2021/11/29 03:29:17;;;;;;;3.58;1.50;;;;;;;5.52;75.67;97508.16;5031853;28;20032;-49
2021/11/29 03:31:44;;;;;;;2.60;1.38;;;;;;;5.70;76.05;97508.38;5014136;28;20033;-49
2021/11/29 03:34:12;;;;;;;6.78;5.80;;;;;;;5.89;75.61;97517.19;5031642;28;20135;-49
2021/11/29 03:36:40;;;;;;;3.67;1.30;;;;;;;5.85;75.19;97520.41;5031815;28;20075;-48
2021/11/29 03:39:09;;;;;;;4.35;1.42;;;;;;;5.84;75.55;97524.03;5031742;28;20025;-49
2021/11/29 03:41:35;;;;;;;6.03;1.63;;;;;;;5.91;75.68;97532.63;5031781;28;20100;-48
2021/11/29 03:44:01;;;;;;;9.18;1.30;;;;;;;5.86;75.36;97533.25;5031689;28;20513;-48
2021/11/29 03:46:27;;;;;;;3.60;1.33;;;;;;;5.76;74.89;97530.22;5013934;28;20029;-49
2021/11/29 03:48:52;;;;;;;8.80;1.80;;;;;;;5.70;75.48;97531.00;5031725;28;20112;-48
2021/11/29 03:51:18;;;;;;;7.65;1.58;;;;;;;5.60;75.21;97540.00;5031567;28;20087;-49
2021/11/29 03:53:44;;;;;;;1.33;0.57;;;;;;;5.49;73.90;97547.56;5031673;28;20108;-47
2021/11/29 03:56:09;;;;;;;3.08;1.17;;;;;;;5.30;74.71;97559.53;5031607;28;20025;-47
2021/11/29 03:58:35;;;;;;;2.40;1.23;;;;;;;5.23;75.25;97551.66;5013733;28;20125;-49
2021/11/29 04:01:01;;;;;;;4.63;1.27;;;;;;;5.40;75.94;97562.56;5031516;28;20025;-45
2021/11/29 04:03:27;;;;;;;2.40;1.20;;;;;;;5.66;75.36;97568.84;5031489;28;20041;-48
2021/11/29 04:05:53;;;;;;;2.30;1.48;;;;;;;5.51;73.70;97564.56;5031483;28;20022;-47
2021/11/29 04:08:18;;;;;;;1.30;0.93;;;;;;;5.30;74.08;97573.31;5031410;28;20030;-49
2021/11/29 04:10:44;;;;;;;4.45;1.40;;;;;;;5.27;75.40;97578.94;5031449;28;20018;-48
2021/11/29 04:13:10;;;;;;;8.15;1.25;;;;;;;5.30;74.41;97580.31;5031440;28;20406;-48
2021/11/29 04:15:36;;;;;;;3.42;1.30;;;;;;;5.20;74.19;97596.28;5031416;28;20024;-47
2021/11/29 04:18:04;;;;;;;4.60;1.17;;;;;;;4.95;74.44;97595.94;5031431;28;20029;-48
2021/11/29 04:20:30;;;;;;;2.10;1.30;;;;;;;4.72;75.12;97609.19;5031271;28;20039;-48
2021/11/29 04:22:56;;;;;;;1.85;1.05;;;;;;;4.59;75.82;97604.72;5031348;28;20495;-46
2021/11/29 04:25:24;;;;;;;20.27;13.32;;;;;;;4.56;76.37;97605.09;5031294;28;20104;-48
2021/11/29 04:27:52;;;;;;;3.10;1.27;;;;;;;4.44;76.38;97606.59;5031370;28;20029;-48
2021/11/29 04:30:23;;;;;;;2.58;1.35;;;;;;;4.36;76.78;97616.09;5031367;28;20029;-49
2021/11/29 04:32:52;;;;;;;2.45;1.50;;;;;;;4.33;76.78;97613.91;5034862;28;20531;-48
2021/11/29 04:35:18;;;;;;;13.48;5.78;;;;;;;4.29;77.34;97620.47;5034825;28;20037;-49
2021/11/29 04:37:44;;;;;;;17.85;11.70;;;;;;;4.26;76.98;97627.81;5033592;28;20041;-49
2021/11/29 04:40:11;;;;;;;2.70;1.70;;;;;;;4.17;76.71;97625.34;5017025;28;20057;-49
2021/11/29 04:42:37;;;;;;;6.90;1.60;;;;;;;4.14;77.00;97623.09;5034908;28;20064;-49
2021/11/29 04:45:04;;;;;;;8.98;5.80;;;;;;;4.18;76.91;97634.72;5017025;28;20496;-48
2021/11/29 04:47:30;;;;;;;31.63;19.30;;;;;;;4.15;76.60;97640.31;5034779;28;20399;-48
2021/11/29 04:49:56;;;;;;;6.88;2.72;;;;;;;4.11;76.93;97638.25;5017281;28;20088;-48
2021/11/29 04:52:22;;;;;;;3.47;1.63;;;;;;;4.13;77.31;97650.06;5034692;28;20017;-48
2021/11/29 04:54:47;;;;;;;7.68;3.42;;;;;;;4.19;77.11;97654.53;5034571;28;20103;-49
2021/11/29 04:57:13;;;;;;;4.15;2.85;;;;;;;4.16;76.74;97657.47;5016614;28;20044;-48
2021/11/29 04:59:39;;;;;;;5.55;4.00;;;;;;;4.23;77.38;97654.16;5016700;28;20426;-48
2021/11/29 05:02:05;;;;;;;2.17;1.60;;;;;;;4.32;77.70;97664.22;5033175;28;20025;-48
2021/11/29 05:05:11;;;;;;;9.57;3.20;;;;;;;4.25;77.73;97676.34;5034503;28;20060;-48
2021/11/29 05:07:36;;;;;;;2.67;1.55;;;;;;;4.29;77.80;97669.81;5034437;28;20029;-48
2021/11/29 05:10:04;;;;;;;3.13;1.55;;;;;;;4.31;77.85;97687.81;5016709;28;20083;-49
2021/11/29 05:12:30;;;;;;;4.57;2.22;;;;;;;4.26;77.35;97690.13;5034334;28;20025;-49
2021/11/29 05:14:56;;;;;;;4.65;1.90;;;;;;;4.16;77.63;97698.22;5016487;28;20033;-49
2021/11/29 05:17:22;;;;;;;5.68;1.65;;;;;;;4.09;77.81;97697.34;5034189;28;20037;-48
2021/11/29 05:19:48;;;;;;;13.95;6.00;;;;;;;4.12;78.05;97708.16;5016380;28;20026;-48
2021/11/29 05:22:14;;;;;;;5.13;2.80;;;;;;;4.16;78.21;97706.00;5034144;28;20483;-48
2021/11/29 05:24:40;;;;;;;5.35;2.28;;;;;;;4.16;77.70;97712.00;5033935;28;20028;-48
2021/11/29 05:27:06;;;;;;;2.38;1.77;;;;;;;4.12;77.49;97712.56;5034062;28;20033;-49
2021/11/29 05:29:32;;;;;;;7.20;3.60;;;;;;;4.09;78.19;97715.53;5016079;28;20033;-49
2021/11/29 05:31:58;;;;;;;6.55;2.67;;;;;;;4.08;77.83;97719.91;5016109;28;20092;-48
2021/11/29 05:34:23;;;;;;;3.53;2.97;;;;;;;4.04;77.84;97725.66;5033767;28;20490;-48
2021/11/29 05:36:49;;;;;;;7.95;2.25;;;;;;;3.95;77.51;97732.75;5033874;28;20125;-48
2021/11/29 05:39:16;;;;;;;2.65;2.13;;;;;;;3.91;77.69;97729.69;5033735;28;20443;-47
2021/11/29 05:41:44;;;;;;;4.57;2.15;;;;;;;3.96;77.35;97742.94;5015846;28;20033;-49
2021/11/29 05:44:10;;;;;;;7.07;3.25;;;;;;;4.16;77.84;97739.75;5015343;28;20044;-47
2021/11/29 05:46:36;;;;;;;4.60;1.90;;;;;;;4.36;76.19;97747.78;5033688;28;20410;-48
2021/11/29 05:49:02;;;;;;;2.33;1.70;;;;;;;4.22;76.14;97746.81;5015880;28;20029;-47
2021/11/29 05:51:28;;;;;;;5.85;3.65;;;;;;;4.15;76.52;97758.94;5033568;28;20025;-48
2021/11/29 05:53:55;;;;;;;34.47;26.70;;;;;;;4.19;76.50;97766.19;5016043;28;20060;-47
2021/11/29 05:56:22;;;;;;;7.57;2.42;;;;;;;4.14;76.00;97768.50;5015553;28;20026;-48
2021/11/29 05:58:48;;;;;;;12.30;2.53;;;;;;;4.06;76.11;97773.81;5033340;28;20036;-48
2021/11/29 06:01:14;;;;;;;46.85;38.00;;;;;;;4.13;76.50;97777.28;5015646;28;20037;-48
2021/11/29 06:03:40;;;;;;;11.35;3.97;;;;;;;4.27;76.60;97782.66;5015588;28;20502;-47
2021/11/29 06:06:06;;;;;;;6.75;2.60;;;;;;;4.31;75.85;97783.91;5033399;28;20034;-48
2021/11/29 06:08:32;;;;;;;5.45;2.47;;;;;;;4.33;75.42;97787.91;5033291;28;20025;-47
2021/11/29 06:10:58;;;;;;;20.77;16.05;;;;;;;4.30;75.83;97785.66;5033204;28;20498;-48
2021/11/29 06:13:23;;;;;;;14.50;3.05;;;;;;;4.34;75.74;97786.91;5015392;28;20398;-48
2021/11/29 06:15:49;;;;;;;10.80;2.35;;;;;;;4.33;75.44;97787.91;5033127;28;20029;-47
2021/11/29 06:18:15;;;;;;;14.80;3.55;;;;;;;4.29;75.94;97797.06;5033076;28;20092;-48
2021/11/29 06:20:41;;;;;;;10.88;2.63;;;;;;;4.40;75.98;97801.78;5032969;28;20029;-47
2021/11/29 06:23:07;;;;;;;30.10;19.13;;;;;;;4.37;75.98;97804.75;5015186;28;20057;-48
2021/11/29 06:25:34;;;;;;;9.10;3.08;;;;;;;4.40;75.98;97811.38;5032837;28;20405;-46
2021/11/29 06:28:00;;;;;;;8.00;2.83;;;;;;;4.44;75.63;97817.00;5032856;28;20101;-47
2021/11/29 06:30:26;;;;;;;5.78;2.47;;;;;;;4.41;74.70;97813.00;5032888;28;20141;-47
2021/11/29 06:32:52;;;;;;;9.95;3.03;;;;;;;4.50;74.38;97817.06;5014696;28;20419;-46
2021/11/29 06:35:19;;;;;;;9.18;2.70;;;;;;;4.57;74.66;97819.78;5032698;28;20025;-47
2021/11/29 06:37:48;;;;;;;5.30;2.03;;;;;;;4.77;74.00;97825.19;5032780;28;20017;-46
2021/11/29 06:40:14;;;;;;;8.60;2.30;;;;;;;4.95;73.82;97829.94;5014870;28;20526;-47
2021/11/29 06:42:41;;;;;;;9.77;3.17;;;;;;;5.00;73.19;97835.38;5032671;28;20049;-46
2021/11/29 06:45:07;;;;;;;16.77;4.90;;;;;;;5.05;73.52;97846.06;5032633;28;20025;-47
2021/11/29 06:47:33;;;;;;;8.80;2.88;;;;;;;4.97;73.30;97854.78;5032636;28;20108;-46
2021/11/29 06:49:58;;;;;;;5.25;2.25;;;;;;;4.82;73.51;97861.00;5032469;28;20108;-46
2021/11/29 06:52:24;;;;;;;9.02;3.22;;;;;;;4.58;73.11;97870.72;5032459;28;20025;-46
2021/11/29 06:54:51;;;;;;;21.35;11.10;;;;;;;4.43;73.29;97883.75;5031507;28;20494;-47
2021/11/29 06:57:19;;;;;;;7.65;3.15;;;;;;;4.41;72.93;97883.13;5014516;28;20411;-46
2021/11/29 06:59:46;;;;;;;36.85;22.90;;;;;;;4.37;73.22;97898.25;5032265;28;20025;-46
2021/11/29 07:02:13;;;;;;;6.35;3.00;;;;;;;4.39;74.01;97903.28;5032265;28;20491;-46
2021/11/29 07:04:39;;;;;;;7.18;2.88;;;;;;;4.33;74.97;97909.19;5032331;28;20024;-47
2021/11/29 07:07:05;;;;;;;4.70;2.72;;;;;;;4.33;74.78;97914.41;5032244;28;20503;-45
2021/11/29 07:09:31;;;;;;;9.25;3.08;;;;;;;4.31;74.89;97918.97;5032232;28;20022;-46
2021/11/29 07:11:57;;;;;;;8.63;4.75;;;;;;;4.30;75.24;97925.13;5032142;28;20033;-46
2021/11/29 07:14:23;;;;;;;7.50;3.70;;;;;;;4.25;75.67;97930.06;5032163;28;20030;-47
2021/11/29 07:16:49;;;;;;;36.10;22.95;;;;;;;4.17;75.64;97938.75;5014359;28;20022;-49
2021/11/29 07:19:16;;;;;;;25.85;17.17;;;;;;;3.98;75.17;97945.25;5031994;28;20018;-51
2021/11/29 07:21:44;;;;;;;14.35;8.90;;;;;;;3.77;75.73;97951.09;5032060;28;20101;-51
2021/11/29 07:24:10;;;;;;;5.60;3.60;;;;;;;3.59;76.14;97961.78;5031848;28;20075;-50
2021/11/29 07:26:43;;;;;;;5.05;3.58;;;;;;;3.52;77.34;97960.84;5031973;28;20381;-50
2021/11/29 07:29:09;;;;;;;7.50;4.00;;;;;;;3.49;77.82;97972.38;5031879;28;20029;-50
2021/11/29 07:31:35;;;;;;;45.42;29.35;;;;;;;3.47;78.25;97979.53;5031755;28;20399;-50
2021/11/29 07:34:01;;;;;;;8.65;5.60;;;;;;;3.54;78.78;97984.84;5031684;28;20132;-50
2021/11/29 07:36:27;;;;;;;8.85;4.15;;;;;;;3.57;78.74;97987.09;5031767;28;20462;-49
2021/11/29 07:38:53;;;;;;;8.50;4.43;;;;;;;3.59;78.75;97988.53;5031731;28;20116;-50
2021/11/29 07:41:19;;;;;;;12.93;4.50;;;;;;;3.66;79.31;97996.41;5031728;28;20029;-49
2021/11/29 07:43:45;;;;;;;5.28;4.13;;;;;;;3.66;78.97;98004.19;5031659;28;20060;-49
2021/11/29 07:46:11;;;;;;;7.70;4.25;;;;;;;3.58;78.81;98009.44;5031637;28;20018;-50
2021/11/29 07:48:37;;;;;;;17.05;9.05;;;;;;;3.53;79.26;98014.38;5031714;28;20497;-50
2021/11/29 07:51:03;;;;;;;9.98;6.38;;;;;;;3.54;79.52;98014.19;5031632;28;20032;-49
2021/11/29 07:53:29;;;;;;;9.35;5.53;;;;;;;3.55;79.54;98023.56;5013930;28;20026;-49
2021/11/29 07:55:55;;;;;;;22.50;15.95;;;;;;;3.57;79.66;98018.22;5031543;28;20026;-50
2021/11/29 07:58:23;;;;;;;70.57;43.60;;;;;;;3.64;79.99;98031.31;5031850;28;20034;-49
2021/11/29 08:00:50;;;;;;;16.63;8.52;;;;;;;3.75;80.52;98041.31;5013722;28;20022;-50
2021/11/29 08:03:16;;;;;;;11.70;7.25;;;;;;;3.87;80.63;98046.91;5013636;28;20025;-50
2021/11/29 08:05:42;;;;;;;18.80;11.00;;;;;;;3.96;80.67;98046.69;5032402;28;20028;-50
2021/11/29 08:08:09;;;;;;;9.35;5.60;;;;;;;4.05;80.57;98047.41;5035491;28;20026;-49
2021/11/29 08:10:37;;;;;;;10.30;3.83;;;;;;;4.10;79.12;98042.50;5017708;28;20165;-49
2021/11/29 08:13:05;;;;;;;5.15;3.88;;;;;;;4.02;79.21;98052.94;5035477;28;20075;-50
2021/11/29 08:15:30;;;;;;;6.05;3.88;;;;;;;3.89;78.33;98061.31;5035380;28;20523;-50
2021/11/29 08:17:56;;;;;;;8.38;4.45;;;;;;;3.81;78.42;98061.38;5017615;28;20072;-49
2021/11/29 08:20:25;;;;;;;10.00;5.00;;;;;;;3.91;79.10;98071.53;5035217;28;20522;-51
2021/11/29 08:22:52;;;;;;;26.55;19.25;;;;;;;4.05;80.01;98075.19;5035308;28;20024;-51
2021/11/29 08:25:17;;;;;;;610.20;429.77;;;;;;;4.12;79.37;98082.06;5035208;28;20065;-51
2021/11/29 08:27:44;;;;;;;1999.90;999.90;;;;;;;4.19;79.67;98080.41;5035161;28;20164;-50
2021/11/29 08:30:13;;;;;;;1059.47;576.55;;;;;;;4.17;78.96;98082.38;5035050;28;20017;-51
2021/11/29 08:32:41;;;;;;;590.25;336.73;;;;;;;4.07;79.13;98087.00;5040247;28;20078;-50
2021/11/29 08:35:08;;;;;;;183.15;110.70;;;;;;;4.09;79.61;98094.63;5055248;28;20389;-52
2021/11/29 08:37:34;;;;;;;123.22;79.85;;;;;;;4.18;79.78;98096.16;5054976;28;20017;-51
2021/11/29 08:40:00;;;;;;;51.55;30.73;;;;;;;4.30;79.78;98109.53;5036917;28;20079;-50
2021/11/29 08:42:25;;;;;;;29.33;13.85;;;;;;;4.38;79.37;98110.28;5054875;28;20053;-51
2021/11/29 08:44:51;;;;;;;26.67;12.55;;;;;;;4.31;79.41;98114.56;5054897;28;20017;-51
2021/11/29 08:47:17;;;;;;;28.02;13.07;;;;;;;4.33;79.19;98114.41;5054747;28;20047;-50
2021/11/29 08:49:44;;;;;;;16.77;8.45;;;;;;;4.40;79.16;98113.50;5054674;28;20059;-51
2021/11/29 08:52:11;;;;;;;14.23;7.38;;;;;;;4.50;79.27;98125.47;5054713;28;20017;-50
2021/11/29 08:54:40;;;;;;;18.13;9.15;;;;;;;4.54;78.59;98129.31;5036713;28;20559;-51
2021/11/29 08:57:10;;;;;;;16.23;8.73;;;;;;;4.57;78.76;98129.78;5036687;28;20084;-48
2021/11/29 08:59:36;;;;;;;17.33;6.80;;;;;;;4.66;78.68;98137.50;5054537;28;20433;-49
2021/11/29 09:02:03;;;;;;;14.00;5.82;;;;;;;4.83;79.14;98136.41;5036540;28;20017;-50
2021/11/29 09:04:29;;;;;;;17.70;6.80;;;;;;;5.08;78.76;98139.56;5054460;28;20029;-51
2021/11/29 09:06:55;;;;;;;7.32;5.30;;;;;;;5.20;77.94;98137.31;5054398;28;20039;-50
2021/11/29 09:09:22;;;;;;;5.50;3.88;;;;;;;5.26;77.63;98143.59;5054413;28;20142;-50
2021/11/29 09:11:48;;;;;;;8.32;5.03;;;;;;;5.12;76.16;98150.41;5054317;28;20021;-51
2021/11/29 09:14:14;;;;;;;12.63;5.88;;;;;;;5.04;77.08;98153.91;5036371;28;20025;-51
2021/11/29 09:16:40;;;;;;;7.20;3.95;;;;;;;5.18;77.58;98160.09;5053853;28;20025;-50
2021/11/29 09:19:06;;;;;;;10.95;3.70;;;;;;;5.33;77.18;98160.09;5053396;28;20503;-50
2021/11/29 09:21:32;;;;;;;14.15;6.40;;;;;;;5.18;75.90;98160.91;5036240;28;20032;-51
2021/11/29 09:23:59;;;;;;;8.80;6.03;;;;;;;5.23;78.25;98162.94;5036108;28;20056;-51
2021/11/29 09:26:24;;;;;;;12.63;5.75;;;;;;;5.56;77.63;98167.81;5054055;28;20024;-51
2021/11/29 09:28:51;;;;;;;26.00;15.98;;;;;;;5.84;78.12;98167.97;5054021;28;20021;-50
2021/11/29 09:31:17;;;;;;;6.85;4.03;;;;;;;5.65;75.50;98173.72;5053912;28;20502;-50
2021/11/29 09:33:43;;;;;;;5.85;3.80;;;;;;;5.61;76.23;98178.47;5053628;28;20519;-50
2021/11/29 09:36:09;;;;;;;6.93;3.83;;;;;;;5.74;76.44;98175.25;5035918;28;20017;-50
2021/11/29 09:38:35;;;;;;;10.30;3.63;;;;;;;5.95;75.51;98188.34;5053838;28;20092;-50
2021/11/29 09:41:03;;;;;;;9.30;3.58;;;;;;;5.95;74.55;98190.13;5053737;28;20163;-49
2021/11/29 09:43:29;;;;;;;6.05;3.63;;;;;;;6.02;74.44;98196.25;5053718;28;20029;-49
2021/11/29 09:45:55;;;;;;;13.68;6.20;;;;;;;6.14;73.85;98194.78;5035776;28;20032;-49
2021/11/29 09:48:21;;;;;;;4.18;2.70;;;;;;;6.35;72.32;98203.59;5053672;28;20469;-49
2021/11/29 09:50:50;;;;;;;6.70;3.50;;;;;;;6.49;72.70;98207.94;5053578;28;20118;-49
2021/11/29 09:53:19;;;;;;;7.43;2.70;;;;;;;6.63;70.98;98211.50;5053555;28;20100;-49
2021/11/29 09:55:45;;;;;;;5.68;2.90;;;;;;;6.67;70.74;98217.16;5053468;28;20029;-48
2021/11/29 09:58:11;;;;;;;3.80;2.50;;;;;;;6.68;71.73;98213.53;5035512;28;20025;-48
2021/11/29 10:00:44;;;;;;;9.70;2.95;;;;;;;6.71;68.23;98208.75;5035419;28;20112;-47
2021/11/29 10:03:10;;;;;;;14.05;3.83;;;;;;;6.89;68.67;98223.97;5035472;28;20410;-49
2021/11/29 10:05:37;;;;;;;5.03;2.83;;;;;;;6.89;66.88;98228.38;5053326;28;20027;-49
2021/11/29 10:08:29;;;;;;;9.70;3.00;;;;;;;6.89;69.04;98225.78;5053279;28;20024;-48
2021/11/29 10:11:05;;;;;;;7.97;2.78;;;;;;;6.95;68.95;98225.03;5053259;28;20036;-49
2021/11/29 10:13:46;;;;;;;4.55;2.80;;;;;;;7.14;68.75;98228.78;5053495;28;20028;-48
2021/11/29 10:16:27;;;;;;;4.28;2.83;;;;;;;7.32;67.43;98230.91;5053156;28;20032;-48
2021/11/29 10:18:52;;;;;;;6.55;3.67;;;;;;;7.49;66.41;98231.44;5035100;28;20064;-48
2021/11/29 10:21:20;;;;;;;5.55;2.60;;;;;;;7.47;65.45;98236.84;5052962;28;20060;-48
2021/11/29 10:23:54;;;;;;;9.75;2.90;;;;;;;7.69;66.52;98240.19;5052942;28;20021;-49
2021/11/29 10:26:30;;;;;;;14.73;4.20;;;;;;;7.93;65.73;98233.69;5052962;28;20086;-48
2021/11/29 10:28:58;;;;;;;;;;;;;;;8.06;64.29;98240.75;5053126;28;20037;-48
2021/11/29 10:31:40;;;;;;;6.25;2.00;;;;;;;8.12;60.76;98239.19;5034955;28;19914;-49
2021/11/29 10:34:27;;;;;;;7.85;2.35;;;;;;;8.13;61.88;98227.72;5052536;28;20417;-48
2021/11/29 10:36:56;;;;;;;10.52;2.67;;;;;;;8.29;60.81;98250.09;5052978;28;20055;-48
2021/11/29 10:39:26;;;;;;;9.15;2.20;;;;;;;8.42;60.05;98250.16;5034659;28;20372;-49
2021/11/29 10:41:55;;;;;;;7.55;2.30;;;;;;;8.24;60.07;98242.84;5052644;28;20040;-49
2021/11/29 10:44:27;;;;;;;3.75;2.17;;;;;;;8.05;59.62;98235.72;5052590;28;20018;-50
2021/11/29 10:47:00;;;;;;;4.00;1.65;;;;;;;7.94;59.11;98239.69;5052582;28;20036;-50
2021/11/29 10:49:30;;;;;;;4.57;1.90;;;;;;;7.82;59.38;98246.47;5052526;28;20071;-50
2021/11/29 10:51:58;;;;;;;8.68;2.22;;;;;;;7.79;59.02;98239.84;5052525;28;20482;-50
2021/11/29 10:54:27;;;;;;;6.82;2.15;;;;;;;7.38;58.68;98241.41;5034512;28;20029;-50
2021/11/29 10:56:56;;;;;;;11.35;2.53;;;;;;;7.06;60.44;98247.97;5050997;28;20406;-51
2021/11/29 10:59:25;;;;;;;8.10;2.38;;;;;;;6.97;59.73;98238.69;5052293;28;20031;-50
2021/11/29 11:01:53;;;;;;;6.90;2.47;;;;;;;6.89;60.02;98257.06;5034360;28;20021;-49
2021/11/29 11:04:44;;;;;;;8.73;2.97;;;;;;;7.08;60.78;98261.63;5052231;28;20079;-50
2021/11/29 11:07:15;;;;;;;11.98;3.15;;;;;;;6.98;60.50;98261.97;5052179;28;20029;-50
2021/11/29 11:09:52;;;;;;;8.45;3.15;;;;;;;6.88;60.22;98261.50;5052191;28;20029;-50
2021/11/29 11:12:19;;;;;;;10.02;2.38;;;;;;;6.90;60.94;98262.13;5052146;28;20029;-51
2021/11/29 11:14:53;;;;;;;9.73;2.17;;;;;;;6.70;60.26;98266.31;5052050;28;20017;-50
2021/11/29 11:17:25;;;;;;;7.95;2.50;;;;;;;6.55;60.45;98269.78;5052013;28;20052;-49
2021/11/29 11:19:53;;;;;;;6.20;2.80;;;;;;;6.52;61.33;98271.94;5051936;28;20021;-49
2021/11/29 11:22:32;;;;;;;3.92;2.08;;;;;;;6.62;61.84;98274.25;5051948;28;20028;-50
2021/11/29 11:25:03;;;;;;;5.63;2.28;;;;;;;6.70;61.31;98274.13;5051947;28;20444;-50
2021/11/29 11:27:39;;;;;;;5.45;2.30;;;;;;;6.87;60.50;98274.72;5051911;28;20024;-49
2021/11/29 11:30:12;;;;;;;;;;;;;;;7.18;61.49;98288.25;5034357;28;20385;-50
2021/11/29 11:32:43;;;;;;;5.72;2.20;;;;;;;7.35;59.93;98282.75;5051555;28;20297;-50
2021/11/29 11:35:22;;;;;;;6.85;2.83;;;;;;;7.19;59.95;98295.06;5051726;28;20447;-49
2021/11/29 11:38:00;;;;;;;5.25;2.63;;;;;;;7.10;58.74;98293.59;5051757;28;20056;-48